NSFA

Faleolo International Airport

Apia, Samoa
TAF NSFA 171706Z 1718/1818 29007KT 9999 -SHRA SCT018 BKN040 PROB40 TEMPO 1718/1818 3000 TSRA BKN015 FEW017CB
Issued Valid From Valid To
Nov-17 @ 17:06 UTC
(5 hours ago)
Nov-17 @ 18:00 UTC
(4 hours ago)
Nov-18 @ 18:00 UTC
(in 20 hours)
Nov-17 @ 18:00 to Nov-18 @ 18:00
TAF NSFA 171706Z 1718/1818 29007KT 9999 -SHRA SCT018 BKN040
Wind Visibility Clouds Conditions
290° at 7 knots 10,000+ meters
  • Scattered at 1,800' AGL
  • Broken at 4,000' AGL
  • Light Rain
Temporary  (Probability 40%) Nov-17 @ 18:00 to Nov-18 @ 18:00
PROB40 TEMPO 1718/1818 3000 TSRA BKN015 FEW017CB
Visibility Clouds Conditions
2,993 meters
  • Broken at 1,500' AGL
  • Few at 1,700' AGL
  • Thunderstorm
  • Rain
TAF NSFA 171706Z 1718/1818 29007KT 9999 -SHRA SCT018 BKN040 PROB40 TEMPO 1718/1818 3000 TSRA BKN015 FEW017CB
Issued Nov-17 @ 17:06 UTC
(5 hours ago)
Valid From Nov-17 @ 18:00 UTC
(4 hours ago)
Valid To Nov-18 @ 18:00 UTC
(in 20 hours)
Nov-17 @ 18:00 - Nov-18 @ 18:00
Wind Visibility
290° at 7 knots 10,000+ meters
Clouds
  • Scattered at 1,800' AGL
  • Broken at 4,000' AGL
Conditions
  • Light Rain
Probability 40% Temporary Nov-17 @ 18:00 - Nov-18 @ 18:00
Clouds
  • Broken at 1,500' AGL
  • Few at 1,700' AGL
Conditions
  • Thunderstorm
  • Rain